Time;durP1;ratioP1;P1;durP2;ratioP2;P2;SDS_P1;SDS_P2;PMS_P1;PMS_P2;Temp;Humidity;BMP_temperature;BMP_pressure;BME280_temperature;BME280_humidity;BME280_pressure;Samples;Min_cycle;Max_cycle;Signal;HPM_P1;HPM_P2
2023/09/24 00:01:27;;;;;;;5.13;3.53;;;11.40;99.90;;;;;;4984950;28;20033;-72
2023/09/24 00:03:53;;;;;;;6.80;4.28;;;11.30;99.90;;;;;;5005477;28;20029;-72
2023/09/24 00:06:20;;;;;;;6.55;3.85;;;11.30;99.90;;;;;;4989077;28;20029;-72
2023/09/24 00:08:48;;;;;;;5.78;3.85;;;11.30;99.90;;;;;;4980561;28;20041;-72
2023/09/24 00:11:15;;;;;;;4.63;4.07;;;11.30;99.90;;;;;;4995469;28;20029;-72
2023/09/24 00:13:42;;;;;;;5.93;4.28;;;11.30;99.90;;;;;;4978572;28;20064;-72
2023/09/24 00:16:09;;;;;;;6.22;3.92;;;11.30;99.90;;;;;;4996368;28;20484;-72
2023/09/24 00:18:36;;;;;;;5.38;3.50;;;11.20;99.90;;;;;;5013119;28;20040;-72
2023/09/24 00:21:04;;;;;;;4.82;4.00;;;11.20;99.90;;;;;;4982917;28;20896;-72
2023/09/24 00:23:30;;;;;;;5.45;3.70;;;11.20;99.90;;;;;;5015858;28;20498;-72
2023/09/24 00:25:57;;;;;;;4.30;3.80;;;11.20;99.90;;;;;;5013933;28;20030;-72
2023/09/24 00:28:24;;;;;;;6.90;3.83;;;11.10;99.90;;;;;;4995338;28;20079;-72
2023/09/24 00:30:55;;;;;;;5.63;3.78;;;11.10;99.90;;;;;;5027664;28;20507;-72
2023/09/24 00:33:23;;;;;;;5.85;3.15;;;11.10;99.90;;;;;;4982906;28;20037;-73
2023/09/24 00:35:50;;;;;;;4.35;3.42;;;11.10;99.90;;;;;;4983364;28;20033;-72
2023/09/24 00:38:18;;;;;;;6.82;4.40;;;11.00;99.90;;;;;;5010059;28;20042;-72
2023/09/24 00:40:44;;;;;;;4.68;3.92;;;11.00;99.90;;;;;;4999252;28;20034;-72
2023/09/24 00:43:27;;;;;;;5.20;4.63;;;11.00;99.90;;;;;;5012731;28;20064;-72
2023/09/24 00:45:57;;;;;;;7.47;4.13;;;11.00;99.90;;;;;;5015144;28;20020;-72
2023/09/24 00:48:32;;;;;;;6.05;4.72;;;10.90;99.90;;;;;;4982629;28;20491;-72
2023/09/24 00:51:01;;;;;;;6.80;4.55;;;10.90;99.90;;;;;;5031660;28;20034;-72
2023/09/24 00:53:33;;;;;;;5.72;4.32;;;10.90;99.90;;;;;;5016101;28;20052;-73
2023/09/24 00:56:00;;;;;;;5.45;3.58;;;10.90;99.90;;;;;;5017749;28;20503;-73
2023/09/24 00:58:30;;;;;;;5.70;3.97;;;10.90;99.90;;;;;;5010356;28;20114;-73
2023/09/24 01:00:57;;;;;;;6.40;3.95;;;10.90;99.90;;;;;;5011672;28;20033;-72
2023/09/24 01:03:23;;;;;;;4.88;4.28;;;10.80;99.90;;;;;;4996919;28;20048;-72
2023/09/24 01:05:54;;;;;;;6.28;4.75;;;10.80;99.90;;;;;;5027431;28;20037;-72
2023/09/24 01:08:22;;;;;;;6.10;4.43;;;10.80;99.90;;;;;;4980783;28;20029;-72
2023/09/24 01:10:49;;;;;;;8.00;4.38;;;10.80;99.90;;;;;;5011647;28;20041;-72
2023/09/24 01:13:22;;;;;;;5.07;4.07;;;10.80;99.90;;;;;;5007175;28;20072;-73
2023/09/24 01:15:50;;;;;;;4.95;3.90;;;10.80;99.90;;;;;;4983799;28;20396;-72
2023/09/24 01:18:18;;;;;;;6.78;4.20;;;10.70;99.90;;;;;;4994582;28;20044;-72
2023/09/24 01:20:44;;;;;;;5.45;4.85;;;10.70;99.90;;;;;;5012218;28;20033;-73
2023/09/24 01:23:14;;;;;;;5.22;4.15;;;10.70;99.90;;;;;;5002872;28;20392;-73
2023/09/24 01:25:43;;;;;;;7.05;4.53;;;10.70;99.90;;;;;;4997433;28;20038;-73
2023/09/24 01:28:10;;;;;;;6.97;5.40;;;10.70;99.90;;;;;;5012934;28;20029;-73
2023/09/24 01:30:38;;;;;;;7.10;4.93;;;10.60;99.90;;;;;;4996502;28;20583;-73
2023/09/24 01:33:05;;;;;;;7.57;5.15;;;10.60;99.90;;;;;;4995312;28;20044;-73
2023/09/24 01:35:35;;;;;;;5.47;4.63;;;10.60;99.90;;;;;;4996498;28;20037;-73
2023/09/24 01:38:05;;;;;;;5.95;4.32;;;10.60;99.90;;;;;;4974814;28;20040;-73
2023/09/24 01:40:37;;;;;;;5.07;3.80;;;10.50;99.90;;;;;;4991958;28;20052;-73
2023/09/24 01:43:06;;;;;;;5.72;4.47;;;10.50;99.90;;;;;;4984150;28;20509;-73
2023/09/24 01:45:34;;;;;;;5.93;5.32;;;10.50;99.90;;;;;;5011606;28;20033;-73
2023/09/24 01:48:03;;;;;;;7.55;5.18;;;10.50;99.90;;;;;;5031252;28;20029;-73
2023/09/24 01:50:32;;;;;;;6.78;4.57;;;10.40;99.90;;;;;;4977844;28;20030;-73
2023/09/24 01:52:59;;;;;;;5.10;4.57;;;10.40;99.90;;;;;;4982345;28;20049;-73
2023/09/24 01:55:26;;;;;;;7.75;5.97;;;10.40;99.90;;;;;;5029606;28;20045;-73
2023/09/24 01:57:53;;;;;;;6.57;5.63;;;10.30;99.90;;;;;;4995717;28;20480;-73
2023/09/24 02:00:23;;;;;;;6.72;5.13;;;10.40;99.90;;;;;;5014574;28;20034;-73
2023/09/24 02:02:50;;;;;;;6.05;5.07;;;10.30;99.90;;;;;;4981296;28;20057;-73
2023/09/24 02:05:19;;;;;;;8.02;5.75;;;10.30;99.90;;;;;;5013727;28;20435;-73
2023/09/24 02:07:48;;;;;;;6.15;5.10;;;10.30;99.90;;;;;;5012357;28;20034;-73
2023/09/24 02:10:17;;;;;;;6.10;4.85;;;10.20;99.90;;;;;;5013992;28;20037;-73
2023/09/24 02:12:45;;;;;;;5.72;4.57;;;10.20;99.90;;;;;;5013123;28;20053;-73
2023/09/24 02:15:17;;;;;;;8.55;6.30;;;10.20;99.90;;;;;;4993996;28;20484;-73
2023/09/24 02:17:48;;;;;;;6.20;5.40;;;10.20;99.90;;;;;;5011795;28;20166;-73
2023/09/24 02:20:27;;;;;;;8.10;6.13;;;10.10;99.90;;;;;;4999864;28;20531;-73
2023/09/24 02:22:56;;;;;;;7.72;5.15;;;10.10;99.90;;;;;;4997266;28;20654;-73
2023/09/24 02:25:28;;;;;;;7.30;6.60;;;10.10;99.90;;;;;;5010714;28;20037;-73
2023/09/24 02:27:56;;;;;;;10.35;7.15;;;10.10;99.90;;;;;;5013582;28;20052;-73
2023/09/24 02:30:27;;;;;;;8.63;7.05;;;10.10;99.90;;;;;;5013704;28;20034;-73
2023/09/24 02:32:53;;;;;;;7.80;6.20;;;10.10;99.90;;;;;;4996430;28;20041;-73
2023/09/24 02:35:20;;;;;;;8.20;5.95;;;10.00;99.90;;;;;;4995696;28;20496;-73
2023/09/24 02:37:50;;;;;;;7.05;6.35;;;10.00;99.90;;;;;;5012152;28;20037;-73
2023/09/24 02:40:27;;;;;;;9.07;6.10;;;10.00;99.90;;;;;;4976444;28;20030;-73
2023/09/24 02:42:58;;;;;;;8.88;7.07;;;10.00;99.90;;;;;;4978446;28;20037;-73
2023/09/24 02:45:27;;;;;;;7.57;6.75;;;9.90;99.90;;;;;;5011808;28;20373;-73
2023/09/24 02:47:54;;;;;;;8.10;6.80;;;9.90;99.90;;;;;;4981740;28;20041;-73
2023/09/24 02:50:23;;;;;;;8.65;5.93;;;9.90;99.90;;;;;;4996900;28;20052;-73
2023/09/24 02:52:53;;;;;;;7.35;5.65;;;9.90;99.90;;;;;;4997166;28;20045;-73
2023/09/24 02:55:22;;;;;;;6.55;5.50;;;9.80;99.90;;;;;;5012070;28;20477;-73
2023/09/24 02:57:50;;;;;;;6.72;6.03;;;9.80;99.90;;;;;;5012718;28;20372;-73
2023/09/24 03:00:19;;;;;;;6.95;5.28;;;9.80;99.90;;;;;;4996550;28;20503;-74
2023/09/24 03:02:47;;;;;;;7.35;5.55;;;9.80;99.90;;;;;;4995255;28;20499;-73
2023/09/24 03:05:20;;;;;;;9.63;7.28;;;9.70;99.90;;;;;;4993861;28;20038;-73
2023/09/24 03:07:50;;;;;;;5.30;4.45;;;9.70;99.90;;;;;;4980657;28;20048;-73
2023/09/24 03:10:18;;;;;;;8.55;7.68;;;9.70;99.90;;;;;;4997212;28;20037;-73
2023/09/24 03:12:46;;;;;;;10.18;6.40;;;9.70;99.90;;;;;;4981581;28;20048;-73
2023/09/24 03:15:13;;;;;;;8.10;5.97;;;9.60;99.90;;;;;;4996692;28;20034;-73
2023/09/24 03:17:40;;;;;;;7.25;5.55;;;9.60;99.90;;;;;;4995487;28;20117;-73
2023/09/24 03:20:15;;;;;;;7.18;5.18;;;9.60;99.90;;;;;;4996857;28;20041;-73
2023/09/24 03:22:43;;;;;;;7.30;5.18;;;9.60;99.90;;;;;;4992589;28;20033;-73
2023/09/24 03:25:10;;;;;;;9.73;5.50;;;9.50;99.90;;;;;;4967565;28;20038;-73
2023/09/24 03:27:40;;;;;;;6.93;5.22;;;9.50;99.90;;;;;;5011600;28;20040;-73
2023/09/24 03:30:17;;;;;;;7.17;4.73;;;9.50;99.90;;;;;;5012999;28;20128;-73
2023/09/24 03:32:46;;;;;;;5.13;4.18;;;9.50;99.90;;;;;;4980112;28;20037;-73
2023/09/24 03:35:13;;;;;;;6.20;5.28;;;9.50;99.90;;;;;;4978595;28;20038;-73
2023/09/24 03:37:44;;;;;;;9.90;6.85;;;9.50;99.90;;;;;;4994919;28;20033;-73
2023/09/24 03:40:16;;;;;;;7.28;5.97;;;9.50;99.90;;;;;;5000249;28;20036;-73
2023/09/24 03:42:43;;;;;;;8.02;7.00;;;9.50;99.90;;;;;;5010336;28;20033;-73
2023/09/24 03:45:11;;;;;;;9.75;6.88;;;9.50;99.90;;;;;;4994367;28;20033;-73
2023/09/24 03:47:38;;;;;;;8.45;6.25;;;9.50;99.90;;;;;;4995760;28;20376;-73
2023/09/24 03:50:08;;;;;;;8.00;5.97;;;9.40;99.90;;;;;;4997834;28;20038;-73
2023/09/24 03:52:35;;;;;;;7.90;5.82;;;9.40;99.90;;;;;;5010810;28;20041;-73
2023/09/24 03:55:02;;;;;;;7.97;5.82;;;9.40;99.90;;;;;;4993518;28;20045;-73
2023/09/24 03:57:29;;;;;;;9.10;6.88;;;9.40;99.90;;;;;;4977066;28;20056;-73
2023/09/24 03:59:57;;;;;;;9.98;7.20;;;9.30;99.90;;;;;;4978399;28;20380;-72
2023/09/24 04:02:26;;;;;;;8.95;6.35;;;9.30;99.90;;;;;;4994223;28;20041;-73
2023/09/24 04:04:53;;;;;;;9.10;6.00;;;9.30;99.90;;;;;;4995531;28;20037;-73
2023/09/24 04:07:20;;;;;;;7.82;6.45;;;9.30;99.90;;;;;;5010743;28;20430;-73
2023/09/24 04:09:50;;;;;;;9.43;7.03;;;9.30;99.90;;;;;;5012071;28;20532;-73
2023/09/24 04:12:16;;;;;;;7.75;6.43;;;9.30;99.90;;;;;;5011501;28;20053;-73
2023/09/24 04:14:43;;;;;;;9.93;6.78;;;9.30;99.90;;;;;;4992214;28;20064;-73
2023/09/24 04:17:09;;;;;;;6.97;5.82;;;9.20;99.90;;;;;;4973426;28;20499;-73
2023/09/24 04:19:36;;;;;;;6.70;5.55;;;9.30;99.90;;;;;;4979301;28;20033;-73
2023/09/24 04:22:02;;;;;;;5.15;4.53;;;9.20;99.90;;;;;;5010347;28;20045;-73
2023/09/24 04:24:28;;;;;;;6.70;5.28;;;9.20;99.90;;;;;;5009840;28;20056;-73
2023/09/24 04:26:56;;;;;;;5.95;4.88;;;9.20;99.90;;;;;;5013226;28;20500;-73
2023/09/24 04:29:22;;;;;;;7.10;5.90;;;9.20;99.90;;;;;;4998199;28;20034;-73
2023/09/24 04:31:49;;;;;;;8.20;6.15;;;9.20;99.90;;;;;;4979398;28;20733;-74
2023/09/24 04:34:15;;;;;;;7.32;5.63;;;9.20;99.90;;;;;;5011846;28;20033;-73
2023/09/24 04:36:42;;;;;;;6.90;5.65;;;9.20;99.90;;;;;;4981547;28;20037;-73
2023/09/24 04:39:12;;;;;;;9.85;6.93;;;9.10;99.90;;;;;;5008596;28;20026;-73
2023/09/24 04:41:40;;;;;;;9.45;6.57;;;9.10;99.90;;;;;;5013958;28;20029;-73
2023/09/24 04:44:09;;;;;;;8.50;6.53;;;9.10;99.90;;;;;;4997987;28;20504;-73
2023/09/24 04:46:36;;;;;;;9.82;7.90;;;9.10;99.90;;;;;;4995838;28;20048;-73
2023/09/24 04:49:05;;;;;;;9.02;7.18;;;9.10;99.90;;;;;;5013966;28;20037;-73
2023/09/24 04:51:34;;;;;;;9.60;7.00;;;9.10;99.90;;;;;;5014130;28;20042;-73
2023/09/24 04:54:01;;;;;;;7.13;6.30;;;9.00;99.90;;;;;;5015031;28;20052;-73
2023/09/24 04:56:28;;;;;;;7.00;5.85;;;9.00;99.90;;;;;;5018026;28;20042;-73
2023/09/24 04:58:54;;;;;;;9.02;6.97;;;8.90;99.90;;;;;;5016859;28;20092;-73
2023/09/24 05:01:21;;;;;;;9.90;7.28;;;9.00;99.90;;;;;;4999159;28;20045;-73
2023/09/24 05:03:51;;;;;;;8.07;6.65;;;8.90;99.90;;;;;;4998635;28;20034;-73
2023/09/24 05:06:18;;;;;;;8.15;6.38;;;8.90;99.90;;;;;;5014775;28;20033;-73
2023/09/24 05:08:45;;;;;;;8.30;6.53;;;8.90;99.90;;;;;;4998839;28;20029;-73
2023/09/24 05:11:13;;;;;;;8.02;7.18;;;8.90;99.90;;;;;;5014335;28;20030;-73
2023/09/24 05:13:40;;;;;;;8.98;7.00;;;8.80;99.90;;;;;;4982831;28;20029;-73
2023/09/24 05:16:08;;;;;;;7.38;6.68;;;8.80;99.90;;;;;;5007259;28;20033;-73
2023/09/24 05:18:35;;;;;;;8.65;7.13;;;8.80;99.90;;;;;;5013481;28;20040;-73
2023/09/24 05:21:03;;;;;;;8.48;7.38;;;8.80;99.90;;;;;;5014616;28;20582;-73
2023/09/24 05:23:29;;;;;;;8.98;7.18;;;8.80;99.90;;;;;;4981635;28;20030;-73
2023/09/24 05:25:56;;;;;;;9.90;6.88;;;8.80;99.90;;;;;;5013416;28;20321;-73
2023/09/24 05:28:22;;;;;;;8.88;7.18;;;8.80;99.90;;;;;;5012512;28;20029;-73
2023/09/24 05:30:53;;;;;;;8.18;6.60;;;8.80;99.90;;;;;;4996180;28;20046;-73
2023/09/24 05:33:20;;;;;;;8.93;7.68;;;8.80;99.90;;;;;;5014880;28;20387;-73
2023/09/24 05:35:52;;;;;;;8.80;7.35;;;8.80;99.90;;;;;;5012363;28;20040;-73
2023/09/24 05:38:19;;;;;;;8.85;6.43;;;8.80;99.90;;;;;;5013039;28;20029;-73
2023/09/24 05:40:46;;;;;;;8.18;7.05;;;8.80;99.90;;;;;;5011834;28;20026;-73
2023/09/24 05:43:12;;;;;;;10.10;7.50;;;8.80;99.90;;;;;;5014556;28;20515;-73
2023/09/24 05:45:46;;;;;;;10.20;8.65;;;8.80;99.90;;;;;;4995843;28;20049;-73
2023/09/24 05:48:14;;;;;;;10.90;8.63;;;8.80;99.90;;;;;;4998109;28;20377;-73
2023/09/24 05:50:41;;;;;;;12.38;9.25;;;8.80;99.90;;;;;;4979808;28;20037;-73
2023/09/24 05:53:12;;;;;;;13.25;10.68;;;8.90;99.90;;;;;;4996920;28;20033;-73
2023/09/24 05:55:39;;;;;;;12.77;9.07;;;8.90;99.90;;;;;;5010019;28;20502;-73
2023/09/24 05:58:07;;;;;;;11.02;9.77;;;9.00;99.90;;;;;;4997644;28;20042;-73
2023/09/24 06:00:36;;;;;;;10.55;8.88;;;9.00;99.90;;;;;;4994131;28;20511;-73
2023/09/24 06:03:03;;;;;;;12.85;9.18;;;9.10;99.90;;;;;;4995490;28;20037;-73
2023/09/24 06:05:29;;;;;;;11.02;8.70;;;9.10;99.90;;;;;;4994700;28;20036;-73
2023/09/24 06:07:56;;;;;;;12.00;8.93;;;9.20;99.90;;;;;;4998193;28;20037;-73
2023/09/24 06:10:23;;;;;;;13.25;8.90;;;9.30;99.90;;;;;;4998468;28;20038;-73
2023/09/24 06:12:50;;;;;;;13.45;10.52;;;9.40;99.90;;;;;;4977562;28;20473;-74
2023/09/24 06:15:17;;;;;;;13.32;11.90;;;9.50;99.90;;;;;;5013368;28;20042;-76
2023/09/24 06:17:44;;;;;;;12.20;10.90;;;9.60;99.90;;;;;;5014101;28;20048;-74
2023/09/24 06:20:11;;;;;;;15.15;12.13;;;9.70;99.90;;;;;;4996806;28;20066;-73
2023/09/24 06:22:37;;;;;;;14.63;12.43;;;9.80;99.90;;;;;;4996513;28;20238;-73
2023/09/24 06:25:04;;;;;;;15.43;12.52;;;10.00;99.90;;;;;;5010239;28;20030;-73
2023/09/24 06:27:30;;;;;;;14.95;11.82;;;10.10;99.90;;;;;;4998496;28;20045;-73
2023/09/24 06:29:57;;;;;;;16.90;13.10;;;10.20;99.90;;;;;;4949077;28;20026;-73
2023/09/24 06:32:23;;;;;;;14.43;12.27;;;10.40;99.90;;;;;;4982482;28;20033;-73
2023/09/24 06:34:50;;;;;;;13.90;12.50;;;10.50;99.90;;;;;;5011921;28;20040;-73
2023/09/24 06:37:16;;;;;;;15.63;12.18;;;10.70;99.90;;;;;;5011076;28;20326;-73
2023/09/24 06:39:44;;;;;;;16.65;12.45;;;10.80;99.90;;;;;;4979431;28;20029;-74
2023/09/24 06:42:10;;;;;;;12.88;11.50;;;10.90;99.90;;;;;;5010816;28;20397;-74
2023/09/24 06:44:36;;;;;;;13.77;12.27;;;11.10;99.90;;;;;;4981759;28;20033;-73
2023/09/24 06:47:03;;;;;;;12.00;10.48;;;11.30;99.90;;;;;;5010373;28;20076;-73
2023/09/24 06:49:29;;;;;;;12.48;11.18;;;11.40;99.90;;;;;;5011775;28;20066;-73
2023/09/24 06:51:56;;;;;;;11.52;9.77;;;11.60;99.90;;;;;;4980075;28;20497;-73
2023/09/24 06:54:22;;;;;;;10.52;9.43;;;11.60;99.90;;;;;;4997182;28;20413;-73
2023/09/24 06:56:49;;;;;;;11.98;9.07;;;11.70;99.90;;;;;;5011190;28;20050;-74
2023/09/24 06:59:15;;;;;;;10.73;8.90;;;11.70;99.90;;;;;;5013701;28;20202;-73
2023/09/24 07:01:41;;;;;;;13.30;10.32;;;11.70;99.90;;;;;;4995843;28;20555;-73
2023/09/24 07:04:08;;;;;;;9.50;8.50;;;11.80;99.90;;;;;;5013589;28;20033;-74
2023/09/24 07:06:35;;;;;;;10.48;8.25;;;11.80;99.90;;;;;;5012837;28;20402;-73
2023/09/24 07:09:02;;;;;;;10.30;8.82;;;11.90;99.90;;;;;;4994737;28;20905;-73
2023/09/24 07:11:33;;;;;;;10.23;8.88;;;11.90;99.90;;;;;;5006227;28;20034;-73
2023/09/24 07:13:59;;;;;;;10.65;8.45;;;11.90;99.90;;;;;;4982252;28;20037;-74
2023/09/24 07:16:26;;;;;;;10.60;9.02;;;12.00;99.90;;;;;;4996275;28;20488;-73
2023/09/24 07:18:54;;;;;;;11.13;9.20;;;12.10;99.90;;;;;;4995567;28;20041;-72
2023/09/24 07:21:28;;;;;;;11.13;9.13;;;12.10;99.90;;;;;;4996298;28;20048;-73
2023/09/24 07:23:59;;;;;;;11.20;8.32;;;12.20;99.90;;;;;;5012718;28;20041;-73
2023/09/24 07:26:26;;;;;;;8.43;7.53;;;12.20;99.90;;;;;;5014063;28;20480;-73
2023/09/24 07:28:53;;;;;;;9.30;8.38;;;12.20;99.90;;;;;;4996300;28;20036;-73
2023/09/24 07:31:25;;;;;;;10.50;8.90;;;12.30;99.90;;;;;;4996749;28;20439;-74
2023/09/24 07:33:53;;;;;;;9.75;7.95;;;12.40;99.90;;;;;;5013671;28;20044;-73
2023/09/24 07:36:20;;;;;;;10.30;8.35;;;12.50;99.90;;;;;;5015696;28;20032;-73
2023/09/24 07:38:49;;;;;;;8.70;7.32;;;12.50;99.90;;;;;;4997764;28;20048;-72
2023/09/24 07:41:16;;;;;;;11.07;8.32;;;12.50;99.90;;;;;;4976976;28;20026;-72
2023/09/24 07:43:42;;;;;;;7.70;7.00;;;12.60;99.90;;;;;;5013092;28;20052;-72
2023/09/24 07:46:14;;;;;;;11.32;8.18;;;12.70;99.90;;;;;;4988870;28;20038;-72
2023/09/24 07:48:47;;;;;;;9.82;8.25;;;12.70;99.90;;;;;;5006438;28;20477;-72
2023/09/24 07:51:16;;;;;;;11.13;8.43;;;12.80;99.90;;;;;;4992464;28;20484;-72
2023/09/24 07:53:45;;;;;;;9.30;7.78;;;12.90;99.90;;;;;;4987775;28;20396;-72
2023/09/24 07:56:12;;;;;;;9.02;8.10;;;13.00;99.90;;;;;;5011314;28;20068;-72
2023/09/24 07:58:40;;;;;;;9.73;7.28;;;13.10;99.90;;;;;;4995664;28;20029;-72
2023/09/24 08:01:07;;;;;;;8.75;7.85;;;13.20;99.90;;;;;;4996720;28;20037;-72
2023/09/24 08:03:35;;;;;;;8.63;7.72;;;13.40;99.90;;;;;;5012271;28;20034;-72
2023/09/24 08:06:02;;;;;;;9.15;7.82;;;13.40;99.90;;;;;;4995326;28;20036;-72
2023/09/24 08:08:30;;;;;;;8.00;7.20;;;13.50;99.90;;;;;;4993240;28;20400;-72
2023/09/24 08:10:57;;;;;;;8.88;7.25;;;13.70;99.90;;;;;;5003778;28;20043;-72
2023/09/24 08:13:23;;;;;;;7.72;6.75;;;13.80;99.90;;;;;;5017073;28;20396;-72
2023/09/24 08:15:50;;;;;;;6.55;5.95;;;13.80;99.90;;;;;;5017102;28;20420;-72
2023/09/24 08:18:17;;;;;;;7.60;5.95;;;13.80;99.90;;;;;;5001999;28;20045;-72
2023/09/24 08:20:48;;;;;;;7.20;5.68;;;13.90;99.90;;;;;;5015528;28;20049;-72
2023/09/24 08:23:15;;;;;;;5.55;4.88;;;14.00;99.90;;;;;;4998970;28;20068;-72
2023/09/24 08:25:41;;;;;;;6.90;5.72;;;14.10;99.90;;;;;;4999315;28;20040;-72
2023/09/24 08:28:11;;;;;;;8.98;5.78;;;14.20;99.90;;;;;;5018316;28;20373;-71
2023/09/24 08:30:37;;;;;;;7.68;5.60;;;14.30;99.90;;;;;;4981993;28;20412;-73
2023/09/24 08:33:04;;;;;;;8.82;6.32;;;14.40;99.90;;;;;;4998416;28;20046;-72
2023/09/24 08:35:31;;;;;;;5.82;4.68;;;14.50;99.90;;;;;;5017965;28;20036;-72
2023/09/24 08:37:57;;;;;;;7.28;5.72;;;14.60;99.90;;;;;;4968349;28;20037;-72
2023/09/24 08:40:29;;;;;;;6.63;4.70;;;14.70;99.90;;;;;;5014937;28;20029;-71
2023/09/24 08:42:56;;;;;;;6.57;4.32;;;14.80;99.90;;;;;;5017847;28;20032;-71
2023/09/24 08:45:29;;;;;;;4.25;3.55;;;14.90;99.90;;;;;;4996219;28;21055;-72
2023/09/24 08:47:57;;;;;;;5.78;3.50;;;15.00;99.90;;;;;;5015332;28;20412;-71
2023/09/24 08:50:24;;;;;;;5.38;3.35;;;15.10;99.90;;;;;;5012870;28;20069;-71
2023/09/24 08:52:53;;;;;;;4.85;2.72;;;15.20;99.90;;;;;;4998279;28;20045;-72
2023/09/24 08:55:20;;;;;;;4.55;3.28;;;15.30;99.90;;;;;;5000128;28;20029;-71
2023/09/24 08:57:46;;;;;;;3.42;2.47;;;15.40;99.90;;;;;;4999691;28;20050;-71
2023/09/24 09:00:15;;;;;;;4.18;2.15;;;15.50;99.90;;;;;;5001400;28;20029;-72
2023/09/24 09:02:43;;;;;;;5.35;2.92;;;15.60;99.90;;;;;;4982667;28;20037;-72
2023/09/24 09:05:21;;;;;;;4.22;2.38;;;15.70;99.90;;;;;;4984928;28;20444;-71
2023/09/24 09:07:55;;;;;;;3.97;2.05;;;15.80;99.90;;;;;;4999723;28;20033;-72
2023/09/24 09:10:36;;;;;;;4.40;2.05;;;15.90;99.90;;;;;;5015004;28;20033;-71
2023/09/24 09:13:18;;;;;;;5.30;2.50;;;16.10;99.90;;;;;;5016945;28;20036;-72
2023/09/24 09:15:46;;;;;;;4.40;2.28;;;16.20;99.90;;;;;;5014667;28;20037;-72
2023/09/24 09:18:26;;;;;;;3.97;2.05;;;16.30;99.90;;;;;;4999685;28;20118;-72
2023/09/24 09:20:59;;;;;;;4.57;1.98;;;16.40;99.90;;;;;;5015117;28;20415;-72
2023/09/24 09:23:45;;;;;;;3.63;1.75;;;16.50;99.90;;;;;;5011380;28;20029;-72
2023/09/24 09:26:11;;;;;;;4.00;1.38;;;16.70;99.90;;;;;;4998787;28;20025;-72
2023/09/24 09:28:38;;;;;;;4.80;2.00;;;16.80;99.90;;;;;;4998732;28;20040;-72
2023/09/24 09:31:06;;;;;;;3.50;1.17;;;16.90;99.90;;;;;;4998801;28;20025;-72
2023/09/24 09:33:41;;;;;;;3.97;1.45;;;17.10;99.90;;;;;;4998718;28;20479;-72
2023/09/24 09:36:28;;;;;;;1.77;0.90;;;17.20;99.90;;;;;;5012556;28;20025;-72
2023/09/24 09:39:00;;;;;;;2.30;0.80;;;17.30;99.90;;;;;;4999742;28;20041;-72
2023/09/24 09:41:26;;;;;;;3.10;0.73;;;17.50;99.90;;;;;;4998927;28;20053;-72
2023/09/24 09:43:53;;;;;;;4.30;0.93;;;17.60;99.90;;;;;;4991457;28;20280;-72
2023/09/24 09:46:23;;;;;;;5.68;1.08;;;17.70;99.90;;;;;;4999185;28;20072;-72
2023/09/24 09:48:56;;;;;;;2.85;0.85;;;17.80;99.90;;;;;;5015402;28;20037;-72
2023/09/24 09:51:24;;;;;;;3.28;0.73;;;17.90;99.90;;;;;;4999010;28;20661;-73
2023/09/24 09:53:53;;;;;;;3.33;0.73;;;18.00;99.90;;;;;;5015445;28;20527;-72
2023/09/24 09:56:23;;;;;;;3.72;0.80;;;18.10;99.90;;;;;;5015953;28;20033;-72
2023/09/24 09:58:51;;;;;;;3.63;0.88;;;18.10;99.90;;;;;;5015363;28;20029;-72
2023/09/24 10:01:20;;;;;;;4.30;0.90;;;18.30;99.90;;;;;;4997308;28;20238;-72
2023/09/24 10:03:51;;;;;;;3.97;0.90;;;18.40;99.90;;;;;;4998391;28;20444;-72
2023/09/24 10:06:18;;;;;;;3.10;0.90;;;18.70;99.90;;;;;;4998981;28;20045;-72
2023/09/24 10:08:49;;;;;;;3.25;0.50;;;18.90;99.90;;;;;;5016920;28;20044;-72
2023/09/24 10:11:31;;;;;;;4.70;1.05;;;19.20;99.90;;;;;;4997867;28;20026;-72
2023/09/24 10:13:58;;;;;;;6.05;0.88;;;19.60;99.90;;;;;;4997880;28;20037;-72
2023/09/24 10:16:27;;;;;;;2.42;0.70;;;19.90;99.90;;;;;;4994950;28;20050;-72
2023/09/24 10:18:54;;;;;;;3.88;0.60;;;20.20;99.90;;;;;;5015160;28;20022;-72
2023/09/24 10:21:36;;;;;;;2.15;0.70;;;20.40;99.90;;;;;;4996463;28;20036;-72
2023/09/24 10:24:11;;;;;;;1.73;0.60;;;20.60;99.90;;;;;;4991797;28;20029;-72
2023/09/24 10:26:52;;;;;;;4.30;0.70;;;20.70;99.90;;;;;;4997951;28;20379;-71
2023/09/24 10:29:51;;;;;;;3.55;0.70;;;20.90;99.90;;;;;;5017621;28;20037;-72
2023/09/24 10:32:18;;;;;;;2.60;0.63;;;21.10;99.90;;;;;;5007131;28;20310;-72
2023/09/24 10:35:09;;;;;;;2.20;0.60;;;21.20;99.90;;;;;;4997519;28;20048;-72
2023/09/24 10:37:39;;;;;;;3.38;0.70;;;21.50;99.90;;;;;;4982147;28;20033;-72
2023/09/24 10:42:38;;;;;;;2.53;0.63;;;22.00;99.90;;;;;;5017959;28;20132;-72
2023/09/24 10:45:08;;;;;;;4.10;0.50;;;22.10;99.90;;;;;;5013113;28;20061;-74
2023/09/24 10:47:38;;;;;;;2.88;0.70;;;22.40;99.90;;;;;;4999174;28;20053;-74
2023/09/24 10:50:15;;;;;;;2.55;0.50;;;22.70;99.90;;;;;;4997844;28;20021;-75
2023/09/24 10:52:48;;;;;;;1.55;0.50;;;22.90;99.90;;;;;;4997200;28;20038;-76
2023/09/24 10:55:30;;;;;;;1.75;0.50;;;23.20;99.90;;;;;;5002496;28;20036;-77
2023/09/24 10:58:08;;;;;;;1.67;0.40;;;23.60;99.90;;;;;;4981384;28;20029;-76
2023/09/24 11:00:35;;;;;;;2.55;0.40;;;24.00;99.90;;;;;;5014180;28;20025;-76
2023/09/24 11:03:10;;;;;;;3.72;0.55;;;24.40;99.90;;;;;;4999221;28;20348;-76
2023/09/24 11:05:40;;;;;;;3.70;0.93;;;24.80;99.90;;;;;;4996991;28;21185;-75
2023/09/24 11:08:07;;;;;;;3.33;1.17;;;25.10;99.90;;;;;;5013417;28;20037;-77
2023/09/24 11:10:33;;;;;;;3.83;2.47;;;25.00;99.90;;;;;;4998828;28;20029;-77
2023/09/24 11:13:03;;;;;;;4.13;2.90;;;25.20;99.90;;;;;;4997946;28;20036;-76
2023/09/24 11:15:37;;;;;;;1.75;0.70;;;25.30;99.90;;;;;;4998074;28;20037;-76
2023/09/24 11:18:05;;;;;;;2.45;0.60;;;25.50;99.90;;;;;;5031252;28;20040;-75
2023/09/24 11:20:33;;;;;;;2.35;0.43;;;25.90;99.90;;;;;;4996932;28;20028;-80
2023/09/24 11:23:11;;;;;;;2.70;0.60;;;26.20;99.90;;;;;;5012144;28;20033;-76
2023/09/24 11:25:38;;;;;;;2.08;0.50;;;26.50;99.90;;;;;;5012807;28;20041;-76
2023/09/24 11:28:06;;;;;;;1.83;0.50;;;26.60;99.90;;;;;;4997903;28;20400;-76
2023/09/24 11:30:51;;;;;;;2.50;0.50;;;26.30;99.90;;;;;;5014226;28;20527;-76
2023/09/24 11:33:23;;;;;;;1.80;0.45;;;25.60;99.90;;;;;;5005637;28;20432;-75
2023/09/24 11:35:51;;;;;;;1.52;0.40;;;25.40;99.90;;;;;;4997085;28;20045;-76
2023/09/24 11:38:30;;;;;;;1.95;0.50;;;25.70;99.90;;;;;;4996697;28;20033;-76
2023/09/24 11:41:12;;;;;;;1.85;0.63;;;26.20;99.90;;;;;;5014557;28;20037;-75
2023/09/24 11:43:38;;;;;;;2.30;0.40;;;26.60;99.90;;;;;;5029196;28;20053;-75
2023/09/24 11:46:24;;;;;;;1.20;0.50;;;26.70;99.90;;;;;;5012381;28;20029;-75
2023/09/24 11:48:52;;;;;;;1.90;0.40;;;27.00;99.90;;;;;;5014559;28;20038;-75
2023/09/24 11:51:21;;;;;;;2.67;0.50;;;27.40;99.90;;;;;;5018090;28;20045;-76
2023/09/24 11:53:47;;;;;;;3.55;0.60;;;27.80;99.90;;;;;;4996417;28;20050;-75
2023/09/24 11:56:14;;;;;;;2.53;0.50;;;28.20;99.90;;;;;;4974932;28;20037;-75
2023/09/24 11:58:41;;;;;;;1.27;0.40;;;28.50;99.90;;;;;;5016619;28;20037;-75
2023/09/24 12:01:09;;;;;;;2.72;0.60;;;29.00;99.50;;;;;;5003123;28;20416;-75
2023/09/24 12:03:35;;;;;;;2.85;0.60;;;29.40;98.60;;;;;;5016970;28;20044;-75
2023/09/24 12:06:03;;;;;;;1.98;0.47;;;29.60;97.50;;;;;;5018556;28;20034;-76
2023/09/24 12:08:29;;;;;;;2.35;0.60;;;29.40;95.70;;;;;;5018439;28;20041;-75
2023/09/24 12:10:56;;;;;;;1.92;0.70;;;29.00;94.30;;;;;;5002280;28;20029;-75
2023/09/24 12:13:22;;;;;;;1.65;0.50;;;28.80;94.30;;;;;;5015494;28;20037;-75
2023/09/24 12:15:48;;;;;;;1.15;0.40;;;28.60;93.70;;;;;;5018770;28;20357;-75
2023/09/24 12:18:15;;;;;;;2.28;0.50;;;28.70;93.80;;;;;;5000507;28;20048;-75
2023/09/24 12:20:42;;;;;;;1.35;0.50;;;28.90;93.20;;;;;;5002163;28;20033;-75
2023/09/24 12:23:10;;;;;;;2.63;0.60;;;29.00;92.30;;;;;;5017455;28;20048;-75
2023/09/24 12:25:37;;;;;;;1.60;0.45;;;29.10;92.30;;;;;;5000102;28;20412;-75
2023/09/24 12:28:06;;;;;;;1.48;0.50;;;29.30;91.60;;;;;;4984623;28;20037;-75
2023/09/24 12:30:32;;;;;;;5.20;0.57;;;29.10;90.30;;;;;;5018508;28;21232;-75
2023/09/24 12:32:59;;;;;;;1.35;0.57;;;28.60;90.60;;;;;;5001752;28;20041;-75
2023/09/24 12:35:25;;;;;;;3.20;0.73;;;28.40;90.30;;;;;;5001006;28;20041;-74
2023/09/24 12:37:54;;;;;;;2.42;0.57;;;28.70;90.60;;;;;;5001573;28;20067;-75
2023/09/24 12:40:22;;;;;;;1.40;0.50;;;28.90;90.20;;;;;;5016069;28;20033;-75
2023/09/24 12:42:49;;;;;;;1.58;0.40;;;29.50;90.00;;;;;;5017229;28;20041;-74
2023/09/24 12:45:16;;;;;;;2.92;0.50;;;30.10;88.70;;;;;;5017005;28;20037;-75
2023/09/24 12:47:43;;;;;;;2.63;0.50;;;30.10;85.70;;;;;;5019039;28;20384;-75
2023/09/24 12:50:11;;;;;;;2.35;0.60;;;29.80;84.80;;;;;;5000486;28;20060;-75
2023/09/24 12:52:41;;;;;;;1.40;0.60;;;29.80;84.80;;;;;;4985264;28;20676;-74
2023/09/24 12:55:10;;;;;;;1.50;0.50;;;30.20;84.30;;;;;;5015656;28;20037;-74
2023/09/24 12:57:38;;;;;;;2.28;0.70;;;30.90;83.60;;;;;;5002319;28;20045;-75
2023/09/24 13:00:10;;;;;;;2.67;0.70;;;31.40;82.50;;;;;;5016752;28;20488;-75